JAL weather

El Lencero Airport
Xalapa, Veracruz, Mexico

Public forecast

Using degrees Celsius for public forecast. Weather courtesy of forecast.io.

Closest aviation weather report (METAR) to El Lencero Airport

Closest report is General Heriberto Jara International Airport, 39.8 nm (73.8 km) ESE. Retrieved 2020/02/27 13:48 UTC (44 minutes ago):

MMVR 271348Z 36005KT 5SM SCT040 OVC070 18/08 A3039 RMK 8/57/ HZY

Closest aviation forecast (TAF) to El Lencero Airport

Forecast is more than 6 hours old.

Closest forecast is General Heriberto Jara International Airport, 39.8 nm (73.8 km) ESE. Retrieved 2020/02/27 06:12 UTC (8 hours ago):

TAF MMVR 270505Z 2706/2806 35012KT 6SM HZ SCT040 OVC070 TX21/2720Z TN15/2712Z FM271800 36018KT 6SM HZ SCT030 BKN080 PROB40 2803/2806 5SM -RA BKN030